Аэропорт: Чертовицкое. Воронеж

ICAO: UUOO

METAR:
2021-07-28 14:00:00
UUOO 281400Z 23002MPS CAVOK 29/08 Q1013 R12/010070 NOSIG RMK QFE746
METAR:
2021-07-28 11:00:00
TAF UUOO 281100Z 2812/2821 16003MPS 9999 BKN040CB PROB40 TEMPO 2812/2821 -TSRA